Time;durP1;ratioP1;P1;durP2;ratioP2;P2;SDS_P1;SDS_P2;PMS_P1;PMS_P2;Temp;Humidity;BMP_temperature;BMP_pressure;BME280_temperature;BME280_humidity;BME280_pressure;Samples;Min_cycle;Max_cycle;Signal;HPM_P1;HPM_P2
2021/01/07 00:00:16;;;;;;;14.13;7.05;;;;;;;4.67;70.54;100682.58;1797760;79;21132;-62
2021/01/07 00:02:43;;;;;;;13.13;6.28;;;;;;;4.68;70.91;100679.06;1797602;79;21371;-60
2021/01/07 00:05:12;;;;;;;13.35;7.67;;;;;;;4.74;70.84;100673.55;1803343;77;21997;-64
2021/01/07 00:07:40;;;;;;;11.50;7.58;;;;;;;4.77;70.79;100654.28;1804131;79;21191;-61
2021/01/07 00:10:11;;;;;;;15.45;8.43;;;;;;;4.76;70.81;100665.19;1741601;81;21170;-62
2021/01/07 00:12:39;;;;;;;13.00;7.42;;;;;;;4.73;71.06;100677.07;1746808;81;21131;-62
2021/01/07 00:15:08;;;;;;;12.45;7.62;;;;;;;4.75;71.16;100676.52;1746929;81;22296;-62
2021/01/07 00:17:36;;;;;;;14.28;7.42;;;;;;;4.74;71.21;100677.47;1800842;79;21183;-62
2021/01/07 00:20:09;;;;;;;13.75;7.95;;;;;;;4.73;71.21;100666.64;1802609;79;21152;-62
2021/01/07 00:22:37;;;;;;;14.38;8.20;;;;;;;4.75;71.26;100674.38;1804638;79;21200;-62
2021/01/07 00:25:08;;;;;;;14.83;9.00;;;;;;;4.73;71.24;100659.29;1806450;79;21144;-62
2021/01/07 00:27:35;;;;;;;14.43;8.88;;;;;;;4.75;71.12;100654.36;1795683;79;21368;-62
2021/01/07 00:30:06;;;;;;;13.90;8.08;;;;;;;4.86;70.98;100654.27;1798234;79;21196;-62
2021/01/07 00:32:34;;;;;;;16.90;8.45;;;;;;;4.91;70.82;100657.03;1801350;79;21152;-62
2021/01/07 00:35:01;;;;;;;13.25;7.45;;;;;;;4.92;70.72;100658.70;1804989;79;21152;-62
2021/01/07 00:37:29;;;;;;;11.90;6.78;;;;;;;4.90;70.78;100655.81;1805045;79;21624;-62
2021/01/07 00:39:56;;;;;;;14.73;8.43;;;;;;;4.87;70.75;100652.88;1798045;79;21372;-62
2021/01/07 00:42:23;;;;;;;15.20;8.48;;;;;;;4.83;71.13;100654.81;1799814;79;21187;-62
2021/01/07 00:44:51;;;;;;;12.93;7.30;;;;;;;4.78;71.03;100650.77;1804792;78;21160;-61
2021/01/07 00:47:19;;;;;;;20.57;9.23;;;;;;;4.78;71.03;100650.77;1807801;78;21151;-64
2021/01/07 00:49:47;;;;;;;14.93;8.70;;;;;;;4.76;70.82;100653.45;1795870;78;21110;-62
2021/01/07 00:52:15;;;;;;;21.00;9.53;;;;;;;4.83;70.45;100664.41;1795789;78;21191;-66
2021/01/07 00:54:44;;;;;;;13.00;7.33;;;;;;;4.90;70.60;100656.64;1816421;78;21607;-63
2021/01/07 00:57:15;;;;;;;12.45;7.40;;;;;;;4.90;70.60;100656.64;1798107;78;21108;-62
2021/01/07 00:59:43;;;;;;;13.40;7.62;;;;;;;4.94;70.49;100656.02;1807187;78;21186;-64
2021/01/07 01:02:10;;;;;;;17.57;8.10;;;;;;;4.90;70.84;100643.60;1743420;78;21422;-63
2021/01/07 01:04:38;;;;;;;12.33;8.13;;;;;;;4.90;70.60;100643.60;1812114;78;21535;-62
2021/01/07 01:07:07;;;;;;;16.50;7.80;;;;;;;4.90;70.60;100643.60;1809355;78;21159;-63
2021/01/07 01:09:34;;;;;;;17.32;8.65;;;;;;;4.88;70.75;100638.94;1790548;78;21132;-63
2021/01/07 01:12:02;;;;;;;15.32;8.13;;;;;;;4.87;70.77;100638.55;1792830;78;21167;-63
2021/01/07 01:14:30;;;;;;;23.50;8.75;;;;;;;4.84;70.75;100632.18;1808409;78;21206;-62
2021/01/07 01:16:57;;;;;;;21.52;8.63;;;;;;;4.87;70.71;100638.55;1798631;78;21805;-63
2021/01/07 01:19:25;;;;;;;13.98;6.90;;;;;;;4.92;70.38;100636.53;1788853;78;21195;-62
2021/01/07 01:21:52;;;;;;;16.42;9.23;;;;;;;4.94;70.39;100632.11;1809224;78;21155;-63
2021/01/07 01:24:20;;;;;;;17.65;9.08;;;;;;;4.91;70.35;100631.40;1796187;78;21176;-62
2021/01/07 01:26:55;;;;;;;16.15;8.45;;;;;;;4.88;70.44;100628.98;1811926;78;21096;-64
2021/01/07 01:29:22;;;;;;;12.55;7.50;;;;;;;4.80;70.49;100630.20;1791248;78;21195;-63
2021/01/07 01:31:51;;;;;;;14.23;6.67;;;;;;;4.73;70.66;100622.80;1800047;78;21140;-65
2021/01/07 01:34:19;;;;;;;15.30;7.97;;;;;;;4.71;70.76;100623.31;1794330;78;21128;-65
2021/01/07 01:36:47;;;;;;;11.88;6.75;;;;;;;4.65;70.60;100621.41;1792512;78;21167;-64
2021/01/07 01:39:15;;;;;;;17.77;7.87;;;;;;;4.59;70.57;100615.22;1801436;78;21563;-65
2021/01/07 01:41:47;;;;;;;14.83;6.65;;;;;;;4.57;70.63;100606.64;1807539;78;21360;-66
2021/01/07 01:44:16;;;;;;;14.35;7.65;;;;;;;4.64;70.54;100604.09;1801788;78;21148;-63
2021/01/07 01:46:44;;;;;;;11.95;6.53;;;;;;;4.70;70.50;100598.19;1800367;79;21160;-63
2021/01/07 01:49:14;;;;;;;12.30;6.87;;;;;;;4.72;70.50;100596.33;1799110;79;21147;-63
2021/01/07 01:51:43;;;;;;;16.95;8.45;;;;;;;4.70;70.70;100581.23;1803447;79;21100;-63
2021/01/07 01:54:10;;;;;;;17.05;8.75;;;;;;;4.70;70.82;100579.94;1803741;79;21201;-63
2021/01/07 01:56:38;;;;;;;11.83;6.95;;;;;;;4.67;70.85;100575.71;1795570;79;21144;-63
2021/01/07 01:59:06;;;;;;;15.20;8.58;;;;;;;4.67;70.95;100568.36;1808174;79;21140;-64
2021/01/07 02:01:34;;;;;;;14.38;7.97;;;;;;;4.64;70.94;100556.34;1789550;79;21135;-62
2021/01/07 02:04:04;;;;;;;18.85;8.40;;;;;;;4.63;71.03;100555.48;1798414;79;21156;-62
2021/01/07 02:06:34;;;;;;;18.25;8.05;;;;;;;4.69;70.97;100557.38;1797934;79;21380;-62
2021/01/07 02:09:07;;;;;;;17.30;8.15;;;;;;;4.81;70.70;100551.55;1794355;79;21991;-62
2021/01/07 02:11:35;;;;;;;17.73;8.60;;;;;;;4.90;70.57;100551.51;1804951;79;21148;-63
2021/01/07 02:14:03;;;;;;;16.12;7.87;;;;;;;4.95;70.45;100549.49;1795430;79;21546;-63
2021/01/07 02:16:30;;;;;;;16.82;7.75;;;;;;;4.97;70.44;100547.16;1792931;79;21125;-63
2021/01/07 02:18:57;;;;;;;14.30;8.30;;;;;;;4.98;70.38;100538.90;1800882;79;21200;-61
2021/01/07 02:21:26;;;;;;;15.03;8.88;;;;;;;4.97;70.29;100533.30;1810739;79;21160;-62
2021/01/07 02:23:54;;;;;;;14.00;8.68;;;;;;;4.91;70.29;100529.27;1792599;79;21132;-62
2021/01/07 02:26:23;;;;;;;16.82;8.58;;;;;;;4.83;70.42;100524.45;1810397;79;22209;-62
2021/01/07 02:28:50;;;;;;;11.83;7.37;;;;;;;4.76;70.58;100522.27;1798198;77;21155;-62
2021/01/07 02:31:18;;;;;;;11.22;6.97;;;;;;;4.70;70.67;100514.30;1800846;79;21391;-62
2021/01/07 02:33:46;;;;;;;11.57;7.00;;;;;;;4.70;70.72;100516.91;1801766;79;21172;-62
2021/01/07 02:36:15;;;;;;;12.13;7.15;;;;;;;4.81;70.61;100517.65;1809987;79;21168;-62
2021/01/07 02:38:43;;;;;;;12.33;6.67;;;;;;;4.88;70.43;100507.27;1800306;79;21625;-62
2021/01/07 02:41:10;;;;;;;11.43;6.67;;;;;;;4.90;70.37;100505.41;1807019;78;21176;-62
2021/01/07 02:43:39;;;;;;;10.55;5.72;;;;;;;4.90;70.41;100494.14;1799491;79;21373;-62
2021/01/07 02:46:07;;;;;;;10.88;5.58;;;;;;;4.87;70.39;100489.92;1784434;79;21449;-62
2021/01/07 02:48:34;;;;;;;11.95;6.45;;;;;;;4.82;70.39;100492.80;1798611;79;21136;-62
2021/01/07 02:51:02;;;;;;;10.15;5.75;;;;;;;4.80;70.48;100493.33;1791976;79;21844;-62
2021/01/07 02:53:30;;;;;;;9.95;6.05;;;;;;;4.78;70.52;100491.73;1795909;79;21112;-62
2021/01/07 02:55:57;;;;;;;11.38;5.37;;;;;;;4.73;70.59;100493.75;1782987;79;21381;-62
2021/01/07 02:58:27;;;;;;;10.68;5.95;;;;;;;4.72;70.58;100485.55;1793043;79;21160;-62
2021/01/07 03:00:54;;;;;;;10.32;5.12;;;;;;;4.78;70.46;100482.62;1788774;79;21502;-62
2021/01/07 03:03:21;;;;;;;8.50;4.53;;;;;;;4.83;70.35;100476.69;1780604;79;22359;-62
2021/01/07 03:05:49;;;;;;;10.38;5.17;;;;;;;4.87;70.35;100477.36;1782391;79;21140;-62
2021/01/07 03:08:16;;;;;;;11.22;6.08;;;;;;;4.86;70.46;100472.61;1795418;79;21365;-62
2021/01/07 03:10:44;;;;;;;10.35;5.08;;;;;;;4.87;70.75;100479.49;1791938;79;21670;-62
2021/01/07 03:13:12;;;;;;;8.80;4.95;;;;;;;4.87;70.75;100479.49;1796803;79;21175;-62
2021/01/07 03:15:39;;;;;;;10.50;5.40;;;;;;;4.84;70.54;100470.53;1789324;79;21644;-62
2021/01/07 03:18:08;;;;;;;10.65;5.75;;;;;;;4.77;70.61;100463.50;1787842;79;21176;-62
2021/01/07 03:20:36;;;;;;;10.93;5.60;;;;;;;4.73;70.75;100468.99;1770311;79;21199;-62
2021/01/07 03:23:05;;;;;;;9.73;5.53;;;;;;;4.75;70.77;100461.45;1790568;79;21156;-62
2021/01/07 03:25:32;;;;;;;9.60;5.12;;;;;;;4.84;70.57;100458.80;1788448;79;21120;-62
2021/01/07 03:27:59;;;;;;;10.10;4.53;;;;;;;4.90;70.47;100444.13;1793239;79;21175;-62
2021/01/07 03:30:27;;;;;;;12.53;5.90;;;;;;;4.92;70.39;100439.66;1797316;79;21160;-62
2021/01/07 03:32:54;;;;;;;10.43;5.62;;;;;;;4.90;70.44;100438.91;1799144;79;22883;-63
2021/01/07 03:35:22;;;;;;;7.78;4.90;;;;;;;4.84;70.64;100426.20;1798771;79;21183;-62
2021/01/07 03:37:49;;;;;;;12.65;6.72;;;;;;;4.82;70.72;100426.32;1782490;79;21176;-61
2021/01/07 03:40:17;;;;;;;10.18;4.95;;;;;;;4.81;70.78;100423.33;1788392;79;21151;-62
2021/01/07 03:42:44;;;;;;;10.43;5.28;;;;;;;4.77;70.81;100418.36;1783142;79;21100;-62
2021/01/07 03:45:14;;;;;;;10.15;5.67;;;;;;;4.72;70.94;100417.30;1787808;78;21357;-62
2021/01/07 03:47:41;;;;;;;13.85;6.35;;;;;;;4.77;70.89;100415.75;1788715;79;21196;-62
2021/01/07 03:50:10;;;;;;;9.00;5.20;;;;;;;4.87;70.62;100413.00;1757288;81;21178;-62
2021/01/07 03:52:38;;;;;;;10.58;4.95;;;;;;;4.90;70.54;100410.70;1778768;80;21154;-62
2021/01/07 03:55:07;;;;;;;11.10;4.87;;;;;;;4.89;70.60;100407.23;1784854;80;21114;-62
2021/01/07 03:57:35;;;;;;;12.98;5.10;;;;;;;4.88;70.74;100408.18;1776415;80;21549;-61
2021/01/07 04:00:05;;;;;;;9.98;5.80;;;;;;;4.89;70.83;100409.02;1749964;80;21221;-62
2021/01/07 04:02:34;;;;;;;9.45;4.97;;;;;;;4.87;70.82;100408.27;1745511;81;21166;-62
2021/01/07 04:05:02;;;;;;;11.38;5.28;;;;;;;4.83;70.86;100408.42;1744061;81;21142;-61
2021/01/07 04:07:30;;;;;;;12.85;5.85;;;;;;;4.78;70.94;100409.15;1738584;81;22370;-62
2021/01/07 04:09:58;;;;;;;10.23;5.15;;;;;;;4.74;71.03;100402.87;1746022;81;21198;-62
2021/01/07 04:12:25;;;;;;;11.05;6.47;;;;;;;4.73;71.07;100399.91;1741848;81;21245;-63
2021/01/07 04:14:55;;;;;;;10.95;6.70;;;;;;;4.78;71.00;100392.20;1743966;81;21197;-62
2021/01/07 04:17:22;;;;;;;8.48;4.62;;;;;;;4.86;70.93;100397.00;1745090;81;21158;-65
2021/01/07 04:19:49;;;;;;;8.90;4.17;;;;;;;4.89;70.90;100399.41;1747767;81;21171;-64
2021/01/07 04:22:17;;;;;;;8.53;3.90;;;;;;;4.89;70.94;100398.58;1743859;81;21796;-62
2021/01/07 04:24:44;;;;;;;12.13;5.33;;;;;;;4.87;71.04;100395.23;1752244;81;21189;-63
2021/01/07 04:27:12;;;;;;;10.00;5.15;;;;;;;4.85;71.09;100392.70;1734260;81;21222;-63
2021/01/07 04:29:40;;;;;;;11.43;5.08;;;;;;;4.84;71.14;100388.41;1734484;81;22075;-62
2021/01/07 04:32:07;;;;;;;8.25;4.40;;;;;;;4.81;71.18;100389.43;1737426;80;21223;-64
2021/01/07 04:34:35;;;;;;;9.23;5.05;;;;;;;4.78;71.26;100384.38;1742030;81;21343;-63
2021/01/07 04:37:03;;;;;;;8.15;4.33;;;;;;;4.80;71.25;100390.34;1749841;81;21185;-63
2021/01/07 04:39:30;;;;;;;8.80;4.03;;;;;;;4.91;70.99;100384.55;1755823;81;21098;-64
2021/01/07 04:41:58;;;;;;;8.05;4.30;;;;;;;4.98;70.89;100381.12;1742114;81;21590;-64
2021/01/07 04:44:25;;;;;;;10.48;4.58;;;;;;;5.00;70.48;100378.80;1755766;81;21194;-64
2021/01/07 04:46:53;;;;;;;9.50;5.22;;;;;;;5.00;70.48;100378.80;1732017;80;21640;-63
2021/01/07 04:49:20;;;;;;;8.00;4.37;;;;;;;5.00;70.96;100380.57;1729309;81;21660;-63
2021/01/07 04:51:48;;;;;;;8.73;4.28;;;;;;;4.99;70.95;100386.70;1741941;81;21555;-63
2021/01/07 04:54:15;;;;;;;9.63;4.30;;;;;;;4.90;70.97;100379.41;1802764;79;21097;-63
2021/01/07 04:56:43;;;;;;;7.62;4.15;;;;;;;4.90;70.97;100379.41;1758929;79;21649;-63
2021/01/07 04:59:11;;;;;;;8.10;4.25;;;;;;;4.83;71.10;100369.32;1782044;79;21623;-63
2021/01/07 05:01:41;;;;;;;7.97;4.05;;;;;;;4.86;71.16;100376.14;1800855;79;21172;-66
2021/01/07 05:04:09;;;;;;;8.05;3.50;;;;;;;4.99;71.11;100364.53;1789985;79;21156;-63
2021/01/07 05:06:38;;;;;;;8.83;4.45;;;;;;;4.99;71.11;100352.80;1787521;79;21164;-62
2021/01/07 05:09:07;;;;;;;10.15;4.90;;;;;;;5.05;70.73;100362.06;1786468;79;21745;-62
2021/01/07 05:11:35;;;;;;;8.73;4.90;;;;;;;5.09;70.91;100364.86;1785516;79;21267;-61
2021/01/07 05:14:05;;;;;;;8.78;4.42;;;;;;;5.08;70.84;100357.50;1790761;79;21435;-63
2021/01/07 05:16:34;;;;;;;8.40;4.35;;;;;;;5.05;70.88;100356.84;1778254;80;21213;-65
2021/01/07 05:19:04;;;;;;;8.40;4.67;;;;;;;5.03;70.88;100355.16;1752281;80;21170;-63
2021/01/07 05:21:34;;;;;;;8.05;4.33;;;;;;;4.98;71.01;100344.15;1744562;81;21177;-63
2021/01/07 05:24:02;;;;;;;9.75;5.55;;;;;;;5.01;70.91;100333.55;1761763;80;21328;-65
2021/01/07 05:26:30;;;;;;;8.88;4.55;;;;;;;5.01;70.91;100333.55;1738871;80;21212;-66
2021/01/07 05:28:58;;;;;;;8.03;3.85;;;;;;;5.19;70.37;100327.73;1733338;80;21198;-66
2021/01/07 05:31:27;;;;;;;9.25;4.58;;;;;;;5.25;70.67;100328.30;1747971;81;21143;-66
2021/01/07 05:33:55;;;;;;;10.53;5.40;;;;;;;5.25;70.67;100328.30;1742732;81;21178;-65
2021/01/07 05:36:27;;;;;;;9.38;5.08;;;;;;;5.25;70.52;100330.44;1754919;81;21463;-66
2021/01/07 05:39:05;;;;;;;10.32;5.33;;;;;;;5.20;70.75;100319.44;1754605;81;21164;-66
2021/01/07 05:41:34;;;;;;;9.98;4.83;;;;;;;5.18;70.62;100320.00;1755273;81;21148;-63
2021/01/07 05:44:06;;;;;;;10.03;5.05;;;;;;;5.14;70.72;100315.87;1749850;81;21734;-63
2021/01/07 05:46:37;;;;;;;7.10;4.50;;;;;;;5.11;70.80;100318.66;1800676;77;21148;-64
2021/01/07 06:12:51;;;;;;;13.00;6.55;;;;;;;6.37;67.47;100304.52;1772959;78;22435;-64
2021/01/07 06:15:23;;;;;;;11.57;6.92;;;;;;;6.14;67.68;100305.48;1740133;81;21216;-64
2021/01/07 06:28:32;;;;;;;12.00;6.17;;;;;;;5.32;69.75;100316.09;1725859;80;22817;-63
2021/01/07 06:31:00;;;;;;;15.30;8.43;;;;;;;5.16;70.16;100316.61;1659794;82;21201;-64
2021/01/07 06:33:29;;;;;;;16.82;7.80;;;;;;;5.18;70.25;100312.17;1654720;82;21413;-63
2021/01/07 06:35:57;;;;;;;15.03;7.85;;;;;;;5.28;70.21;100318.52;1681034;82;21804;-63
2021/01/07 06:38:26;;;;;;;15.28;8.05;;;;;;;5.34;70.15;100319.44;1657086;82;21210;-63
2021/01/07 06:40:58;;;;;;;17.57;8.75;;;;;;;5.40;70.19;100315.65;1699676;82;21224;-63
2021/01/07 06:43:26;;;;;;;16.70;7.95;;;;;;;5.47;70.20;100317.42;1696487;82;21179;-63
2021/01/07 06:45:56;;;;;;;14.93;8.98;;;;;;;5.43;70.11;100312.00;1699528;82;22032;-64
2021/01/07 06:48:25;;;;;;;17.57;9.73;;;;;;;5.39;70.83;100306.13;1695823;82;21255;-64
2021/01/07 06:50:55;;;;;;;17.95;9.18;;;;;;;5.39;70.83;100306.13;1697573;82;21786;-64
2021/01/07 06:53:23;;;;;;;20.30;9.45;;;;;;;5.34;70.63;100310.31;1697620;82;21675;-64
2021/01/07 06:56:13;;;;;;;25.23;11.53;;;;;;;5.29;71.13;100307.61;1694818;82;22674;-65
2021/01/07 06:58:58;;;;;;;21.57;11.55;;;;;;;5.32;70.96;100299.13;1866969;74;22248;-64
2021/01/07 07:01:25;;;;;;;23.00;10.88;;;;;;;5.36;70.89;100307.17;1787559;77;21199;-66
2021/01/07 07:03:53;;;;;;;24.67;11.97;;;;;;;5.46;70.71;100294.38;1818907;77;21208;-65
2021/01/07 07:06:26;;;;;;;26.77;13.40;;;;;;;5.53;70.65;100302.24;1835948;75;21020;-64
2021/01/07 07:08:53;;;;;;;27.45;11.55;;;;;;;5.56;71.00;100286.40;1837793;75;21125;-64
2021/01/07 07:11:34;;;;;;;23.05;11.15;;;;;;;5.56;71.00;100286.40;1836015;77;21187;-62
2021/01/07 07:14:06;;;;;;;22.98;13.65;;;;;;;5.61;70.73;100291.80;1834652;75;21190;-62
2021/01/07 07:16:36;;;;;;;21.82;12.47;;;;;;;5.61;70.76;100291.32;1835290;77;21187;-70
2021/01/07 07:19:06;;;;;;;26.25;10.45;;;;;;;5.56;70.82;100285.54;1835488;75;21610;-62
2021/01/07 07:21:35;;;;;;;27.93;12.70;;;;;;;5.55;70.86;100285.19;1833608;75;21654;-63
2021/01/07 07:24:12;;;;;;;20.57;11.70;;;;;;;5.53;70.93;100285.72;1833148;75;21202;-63
2021/01/07 07:26:40;;;;;;;22.17;10.68;;;;;;;5.55;70.84;100280.80;1836728;75;22158;-62
2021/01/07 07:29:12;;;;;;;18.92;9.45;;;;;;;5.65;70.64;100278.91;1836717;75;22252;-63
2021/01/07 07:31:46;;;;;;;21.23;9.03;;;;;;;5.68;70.56;100273.52;1835444;77;21143;-62
2021/01/07 07:34:16;;;;;;;21.02;10.35;;;;;;;5.67;70.59;100267.46;1834286;76;26716;-62
2021/01/07 07:36:43;;;;;;;17.52;8.78;;;;;;;5.65;70.96;100255.42;1836148;75;21171;-63
2021/01/07 07:39:11;;;;;;;16.55;8.80;;;;;;;5.64;71.02;100256.38;1834829;77;21219;-61
2021/01/07 07:41:44;;;;;;;16.23;9.00;;;;;;;5.64;71.02;100256.38;1836545;77;21402;-61
2021/01/07 07:44:31;;;;;;;17.17;7.47;;;;;;;5.64;70.90;100244.15;1825567;75;22789;-62
2021/01/07 07:46:59;;;;;;;13.43;6.95;;;;;;;5.58;70.90;100234.08;1790287;79;21183;-60
2021/01/07 07:49:26;;;;;;;13.00;6.60;;;;;;;5.54;70.95;100225.60;1795745;78;21695;-61
2021/01/07 07:51:54;;;;;;;16.42;8.33;;;;;;;5.64;71.06;100226.35;1799693;79;21136;-63
2021/01/07 07:54:22;;;;;;;15.80;7.80;;;;;;;5.64;71.06;100226.35;1789090;78;21514;-65
2021/01/07 07:56:58;;;;;;;15.40;8.25;;;;;;;5.72;70.70;100226.24;1802610;78;21254;-63
2021/01/07 07:59:27;;;;;;;15.80;7.60;;;;;;;5.72;70.70;100226.24;1794529;79;21262;-61
2021/01/07 08:01:55;;;;;;;16.42;7.28;;;;;;;5.69;70.79;100218.59;1798449;78;22707;-63
2021/01/07 08:04:23;;;;;;;12.55;6.67;;;;;;;5.66;70.94;100220.09;1798721;78;21186;-60
2021/01/07 08:06:51;;;;;;;13.13;7.47;;;;;;;5.63;71.07;100217.69;1799264;78;21151;-59
2021/01/07 08:09:20;;;;;;;13.55;6.67;;;;;;;5.62;71.13;100213.39;1801772;79;21124;-64
2021/01/07 08:11:53;;;;;;;12.15;6.70;;;;;;;5.58;71.24;100212.75;1800927;77;21120;-62
2021/01/07 08:14:25;;;;;;;13.65;7.60;;;;;;;5.56;71.27;100210.70;1799679;77;21378;-62
2021/01/07 08:16:58;;;;;;;12.07;7.25;;;;;;;5.56;71.32;100208.55;1797973;78;21556;-63
2021/01/07 08:19:32;;;;;;;16.23;7.12;;;;;;;5.70;71.47;100195.48;1804030;79;21159;-64
2021/01/07 08:22:01;;;;;;;17.87;8.13;;;;;;;5.70;71.47;100195.48;1800672;79;21174;-64
2021/01/07 08:24:28;;;;;;;18.90;7.72;;;;;;;5.70;71.26;100194.18;1799553;78;21152;-64
2021/01/07 08:27:13;;;;;;;17.62;7.65;;;;;;;5.66;71.41;100195.77;1799092;79;21614;-64
2021/01/07 08:29:41;;;;;;;16.17;8.75;;;;;;;5.59;71.64;100191.39;1799873;77;21924;-64
2021/01/07 08:32:11;;;;;;;13.18;7.55;;;;;;;5.54;71.80;100189.53;1798395;78;21212;-63
2021/01/07 08:34:38;;;;;;;15.10;7.53;;;;;;;5.49;71.98;100176.77;1794967;78;21461;-61
2021/01/07 08:37:17;;;;;;;14.33;6.22;;;;;;;5.49;72.12;100172.02;1772107;79;21180;-69
2021/01/07 08:39:45;;;;;;;13.90;7.10;;;;;;;5.65;71.58;100165.36;1802557;77;21544;-61
2021/01/07 08:42:14;;;;;;;14.43;7.42;;;;;;;5.65;71.58;100165.36;1801241;79;21131;-61
2021/01/07 08:44:41;;;;;;;13.30;7.60;;;;;;;5.73;71.71;100162.66;1811894;78;21168;-62
2021/01/07 08:47:23;;;;;;;13.13;6.90;;;;;;;5.73;71.71;100162.66;1815764;78;21502;-63
2021/01/07 08:50:09;;;;;;;10.25;6.25;;;;;;;5.74;72.08;100151.27;1791030;78;22395;-63
2021/01/07 08:52:51;;;;;;;13.78;7.90;;;;;;;5.70;72.14;100153.72;1777115;79;21156;-62
2021/01/07 08:55:20;;;;;;;13.93;6.92;;;;;;;5.67;72.17;100143.94;1773663;79;22356;-62
2021/01/07 08:57:47;;;;;;;16.55;7.40;;;;;;;5.65;72.39;100136.64;1783946;79;21092;-62
2021/01/07 09:00:22;;;;;;;12.30;7.08;;;;;;;5.61;72.46;100139.92;1773442;78;21242;-61
2021/01/07 09:03:01;;;;;;;14.63;8.83;;;;;;;5.63;72.41;100127.63;1778977;79;21246;-63
2021/01/07 09:05:29;;;;;;;10.93;6.20;;;;;;;5.79;72.49;100117.52;1772139;79;21738;-62
2021/01/07 09:08:09;;;;;;;13.58;7.62;;;;;;;5.79;72.49;100117.52;1779036;79;21817;-63
2021/01/07 09:10:37;;;;;;;14.73;8.58;;;;;;;5.79;72.49;100114.42;1779037;79;21199;-65
2021/01/07 09:13:22;;;;;;;13.13;7.67;;;;;;;5.79;72.49;100107.07;1774154;79;21196;-63
2021/01/07 09:15:50;;;;;;;14.25;7.42;;;;;;;5.77;72.59;100107.99;1781107;79;21167;-63
2021/01/07 09:18:19;;;;;;;12.20;8.30;;;;;;;5.74;72.64;100103.44;1778337;79;21241;-62
2021/01/07 09:20:46;;;;;;;14.07;7.80;;;;;;;5.70;72.71;100100.64;1774366;78;21365;-61
2021/01/07 09:23:17;;;;;;;10.90;6.15;;;;;;;5.66;73.11;100088.73;1715468;81;21635;-62
2021/01/07 09:25:44;;;;;;;11.05;5.65;;;;;;;5.66;73.11;100088.73;1714522;81;21618;-57
2021/01/07 09:28:12;;;;;;;9.10;4.95;;;;;;;5.77;72.78;100070.14;1717519;81;21200;-65
2021/01/07 09:30:40;;;;;;;12.75;6.53;;;;;;;5.86;72.59;100067.39;1708748;81;21232;-61
2021/01/07 09:33:07;;;;;;;10.05;5.85;;;;;;;5.91;72.51;100053.56;1742966;80;21635;-55
2021/01/07 09:35:34;;;;;;;13.72;5.80;;;;;;;5.95;72.09;100047.66;1709377;81;21180;-62
2021/01/07 09:38:02;;;;;;;10.03;5.15;;;;;;;5.95;72.73;100045.05;1722494;82;21224;-63
2021/01/07 09:40:32;;;;;;;12.90;5.60;;;;;;;5.95;72.73;100045.05;1716869;81;21769;-62
2021/01/07 09:42:59;;;;;;;12.00;6.03;;;;;;;5.94;72.47;100042.91;1743971;80;21465;-62
2021/01/07 09:45:27;;;;;;;16.32;6.42;;;;;;;5.92;72.42;100047.41;1740416;80;21517;-63
2021/01/07 09:47:54;;;;;;;12.55;5.08;;;;;;;5.90;73.25;100043.21;1716987;82;21253;-61
2021/01/07 09:50:23;;;;;;;9.78;5.30;;;;;;;5.96;72.79;100012.81;1763591;80;21189;-59
2021/01/07 09:52:51;;;;;;;8.25;4.35;;;;;;;6.11;72.45;100017.48;1761651;79;21818;-60
2021/01/07 09:55:18;;;;;;;11.28;5.25;;;;;;;6.24;72.12;100014.89;1763491;79;21188;-60
2021/01/07 09:57:49;;;;;;;11.25;5.22;;;;;;;6.28;71.90;100009.81;1760802;80;21323;-62
2021/01/07 10:00:18;;;;;;;10.05;4.78;;;;;;;6.29;71.86;99998.42;1763794;79;21742;-61
2021/01/07 10:02:45;;;;;;;12.58;5.80;;;;;;;6.29;71.86;99993.20;1761395;80;21157;-61
2021/01/07 10:05:13;;;;;;;11.53;5.90;;;;;;;6.33;71.74;99997.27;1765710;79;21808;-62
2021/01/07 10:07:41;;;;;;;9.05;4.65;;;;;;;6.33;71.60;99984.20;1766149;79;21385;-63
2021/01/07 10:10:10;;;;;;;10.43;4.58;;;;;;;6.35;71.49;99982.31;1759515;79;21690;-66
2021/01/07 10:12:37;;;;;;;9.78;4.85;;;;;;;6.34;71.56;99974.12;1763377;79;21177;-70
2021/01/07 10:15:08;;;;;;;8.55;3.77;;;;;;;6.37;71.66;99968.69;1702161;82;21204;-64
2021/01/07 10:17:36;;;;;;;7.05;3.90;;;;;;;6.47;71.19;99968.86;1761980;79;21288;-60
2021/01/07 10:20:06;;;;;;;9.65;4.78;;;;;;;6.59;71.01;99960.19;1764126;79;21172;-62
2021/01/07 10:22:34;;;;;;;9.55;5.00;;;;;;;6.67;70.92;99955.70;1763557;79;21386;-61
2021/01/07 10:25:04;;;;;;;8.50;4.10;;;;;;;6.73;70.85;99949.23;1734866;80;21171;-62
2021/01/07 10:27:31;;;;;;;9.48;5.12;;;;;;;6.75;70.98;99945.54;1684624;83;21565;-57
2021/01/07 10:29:59;;;;;;;9.38;4.67;;;;;;;6.76;70.87;99935.91;1761024;80;21126;-60
2021/01/07 10:32:27;;;;;;;8.55;4.83;;;;;;;6.78;70.76;99930.13;1766889;79;21127;-61
2021/01/07 10:34:54;;;;;;;7.85;4.45;;;;;;;6.75;70.61;99920.70;1702202;82;22198;-62
2021/01/07 10:37:23;;;;;;;8.65;4.05;;;;;;;6.74;70.60;99922.97;1762482;79;21125;-62
2021/01/07 10:39:53;;;;;;;6.03;3.40;;;;;;;6.78;70.39;99914.44;1703377;82;21107;-63
2021/01/07 10:42:21;;;;;;;8.35;3.98;;;;;;;6.87;70.24;99911.14;1761605;79;21137;-62
2021/01/07 10:44:50;;;;;;;6.75;3.27;;;;;;;6.95;70.04;99904.06;1766380;79;21494;-61
2021/01/07 10:47:17;;;;;;;8.88;4.28;;;;;;;6.95;69.97;99900.14;1763026;80;21365;-62
2021/01/07 10:49:46;;;;;;;7.55;3.92;;;;;;;6.93;70.16;99894.19;1767893;79;21136;-63
2021/01/07 10:52:52;;;;;;;5.75;2.85;;;;;;;6.93;70.10;99896.80;1766399;79;21144;-62
2021/01/07 10:55:27;;;;;;;6.78;3.00;;;;;;;6.89;70.06;99889.63;1727748;80;21089;-62
2021/01/07 10:58:32;;;;;;;7.28;3.80;;;;;;;6.86;70.18;99880.23;1759557;79;21124;-62
2021/01/07 11:01:11;;;;;;;9.55;4.33;;;;;;;6.85;70.27;99868.09;1769128;79;21312;-60
2021/01/07 11:04:03;;;;;;;7.15;3.40;;;;;;;6.82;70.23;99860.47;1761396;79;21129;-61
2021/01/07 11:06:32;;;;;;;7.08;3.52;;;;;;;6.86;70.19;99858.49;1756440;80;21088;-64
2021/01/07 11:09:14;;;;;;;6.65;3.30;;;;;;;6.95;69.97;99855.67;1704992;82;21114;-61
2021/01/07 11:11:45;;;;;;;7.28;3.40;;;;;;;6.99;69.94;99842.71;1762003;79;21125;-61
2021/01/07 11:14:32;;;;;;;8.48;4.00;;;;;;;7.03;69.86;99838.94;1764676;80;22133;-63
2021/01/07 11:17:11;;;;;;;7.95;4.58;;;;;;;6.99;69.92;99833.55;1769114;80;21172;-62
2021/01/07 11:19:38;;;;;;;9.93;4.47;;;;;;;7.01;70.06;99831.66;1708198;82;21155;-64
2021/01/07 11:22:19;;;;;;;8.48;5.12;;;;;;;6.99;70.04;99822.64;1745491;79;21133;-61
2021/01/07 11:24:48;;;;;;;9.68;5.22;;;;;;;6.97;70.07;99815.84;1709183;82;21135;-62
2021/01/07 11:27:15;;;;;;;8.73;4.80;;;;;;;6.96;70.07;99806.31;1765906;79;21367;-61
2021/01/07 11:29:43;;;;;;;10.58;4.95;;;;;;;6.96;70.11;99804.55;1725931;81;21141;-63
2021/01/07 11:32:11;;;;;;;8.25;3.90;;;;;;;7.06;69.92;99797.69;1698405;83;21165;-61
2021/01/07 11:34:39;;;;;;;9.15;4.10;;;;;;;7.13;69.80;99788.91;1722414;82;21161;-62
2021/01/07 11:37:24;;;;;;;10.65;5.30;;;;;;;7.16;69.85;99787.83;1765397;79;21735;-62
2021/01/07 11:40:00;;;;;;;13.45;5.45;;;;;;;7.16;70.00;99779.97;1730642;79;21579;-62
2021/01/07 11:42:37;;;;;;;;;;;;;;;7.16;69.98;99784.75;1761261;79;21136;-63
2021/01/07 11:45:19;;;;;;;8.65;4.97;;;;;;;7.12;70.05;99774.14;1717092;82;28215;-64
2021/01/07 11:47:56;;;;;;;11.93;5.10;;;;;;;7.01;70.36;99773.66;1705692;83;21136;-64
2021/01/07 11:50:25;;;;;;;10.25;4.95;;;;;;;6.93;70.56;99768.64;1768462;79;21563;-65
2021/01/07 11:52:54;;;;;;;9.08;4.97;;;;;;;6.94;70.64;99762.45;1754696;80;22767;-63
2021/01/07 11:55:22;;;;;;;9.50;4.97;;;;;;;7.03;70.66;99761.28;1746859;80;21171;-64
2021/01/07 11:57:50;;;;;;;8.88;5.83;;;;;;;7.10;70.49;99758.22;1769596;80;21137;-65
2021/01/07 12:00:18;;;;;;;10.10;6.17;;;;;;;7.12;70.41;99750.59;1765309;79;21090;-62
2021/01/07 12:02:48;;;;;;;10.88;5.42;;;;;;;7.10;70.57;99745.96;1768303;80;21085;-64
2021/01/07 12:05:18;;;;;;;11.15;5.72;;;;;;;7.10;70.75;99751.68;1764446;80;21442;-65
2021/01/07 12:08:03;;;;;;;9.40;5.45;;;;;;;7.12;70.64;99741.44;1762298;80;21168;-62
2021/01/07 12:10:33;;;;;;;11.50;6.28;;;;;;;7.11;70.66;99743.72;1753517;79;22007;-62
2021/01/07 12:13:28;;;;;;;10.20;6.05;;;;;;;7.07;70.71;99738.34;1756157;79;21131;-63
2021/01/07 12:15:55;;;;;;;8.30;4.17;;;;;;;7.02;70.79;99729.52;1676493;83;21589;-62